• Join FlightAware (Why Join?)
  • Login
  • US Flag 
11:57PM EDT


 

Airport Tracker/Info


-or-


 

Live Flight TrackerFlight Track Log ✈ VOZ1166 ✈ 07-Nov-2013 ✈ YCFS - YSSY / SYD

Flight Track Log - Related Links

Times and Time Zones

All times are in EST time to prevent confusion due to time zone crossing. See the VOZ1166 flight status page for this flight to view local times or setup timezone preferences in your user account.

Time Position Orientation Groundspeed Altitude Reporting Facility
EST Latitude Longitude Course Direction KTS MPH feet Rate Location/Type
12:27AM -30.3206 153.1163 161° South 14,000  Level Aus ATC (Calculated)
12:28AM -30.4154 153.0956 40° Northeast 14,000 -6,900 Level Aus ATC (Calculated)
12:28AM -30.3731 153.1369 212° Southwest 241 277 4,400 -7,980 Descending Aus ATC (RADAR)
12:29AM -30.4079 153.1112 212° Southwest 253 291 6,200 3,180 Climbing Aus ATC (RADAR)
12:30AM -30.4915 153.0804 198° South 271 312 10,000 2,820 Climbing Aus ATC (RADAR)
12:31AM -30.5309 153.0728 189° South 283 326 10,900 1,380 Climbing Aus ATC (RADAR)
12:31AM -30.5827 153.0610 191° South 318 366 11,500 2,700 Climbing Aus ATC (RADAR)
12:32AM -30.6406 153.0136 215° Southwest 354 407 14,500 3,480 Climbing Aus ATC (RADAR)
12:32AM -30.6726 152.9597 235° Southwest 347 399 16,200 2,880 Climbing Aus ATC (RADAR)
12:33AM -30.7200 152.8922 231° Southwest 358 412 18,400 3,000 Climbing Aus ATC (RADAR)
12:34AM -30.7465 152.8536 231° Southwest 365 420 19,700 2,760 Climbing Aus ATC (RADAR)
12:35AM -30.8283 152.7345 231° Southwest 380 437 23,000 2,460 Climbing Aus ATC (RADAR)
12:35AM -30.8619 152.6852 232° Southwest 386 444 24,100 2,280 Climbing Aus ATC (RADAR)
12:36AM -30.8904 152.6436 231° Southwest 393 452 25,100 2,160 Climbing Aus ATC (RADAR)
12:36AM -30.9303 152.5847 232° Southwest 396 456 26,300 2,100 Climbing Aus ATC (RADAR)
12:37AM -30.9828 152.5076 231° Southwest 405 466 27,900 1,860 Climbing Aus ATC (RADAR)
12:38AM -31.0244 152.4470 231° Southwest 412 474 28,800 1,680 Climbing Aus ATC (RADAR)
12:38AM -31.0785 152.3674 232° Southwest 418 481 30,200 1,980 Climbing Aus ATC (RADAR)
12:39AM -31.1138 152.3147 232° Southwest 414 476 31,300 1,860 Climbing Aus ATC (RADAR)
12:40AM -31.1908 152.2001 232° Southwest 415 478 33,200 1,620 Climbing Aus ATC (RADAR)
12:40AM -31.2203 152.1560 232° Southwest 414 476 33,800 1,500 Climbing Aus ATC (RADAR)
12:41AM -31.2360 152.1330 232° Southwest 413 475 34,200 1,860 Climbing FlightAware
12:41AM -31.2615 152.0948 232° Southwest 411 473 34,900 1,680 Climbing Aus ATC (RADAR)
12:41AM -31.2650 152.0890 232° Southwest 405 466 34,900 1,200 Level FlightAware
12:42AM -31.3060 152.0290 232° Southwest 405 466 35,700 1,320 Climbing FlightAware
12:42AM -31.3259 151.9989 232° Southwest 411 473 36,000 300 Climbing Aus ATC (RADAR)
12:43AM -31.3672 151.9381 232° Southwest 411 473 36,000  Level Aus ATC (RADAR)
12:43AM -31.3770 151.9230 232° Southwest 408 470 36,000  Level FlightAware
12:43AM -31.4215 151.8604 232° Southwest 416 479 36,000  Level Aus ATC (RADAR)
12:44AM -31.4490 151.8350 217° Southwest 407 468 36,000  Level FlightAware
12:44AM -31.4817 151.8068 217° Southwest 411 473 36,000  Level Aus ATC (RADAR)
12:45AM -31.5320 151.7630 216° Southwest 406 467 36,000  Level FlightAware
12:45AM -31.5933 151.7108 216° Southwest 399 459 36,000  Level Aus ATC (RADAR)
12:46AM -31.6220 151.6850 217° Southwest 405 466 36,000  Level FlightAware
12:46AM -31.6385 151.6713 217° Southwest 399 459 36,000  Level Aus ATC (RADAR)
12:46AM -31.6750 151.6390 217° Southwest 403 464 36,000  Level FlightAware
12:46AM -31.6910 151.6260 217° Southwest 396 456 36,000  Level Aus ATC (RADAR)
12:47AM -31.7320 151.5890 217° Southwest 402 463 36,000  Level FlightAware
12:47AM -31.7595 151.5656 217° Southwest 402 463 36,000  Level Aus ATC (RADAR)
12:48AM -31.8096 151.5221 217° Southwest 391 450 36,000  Level Aus ATC (RADAR)
12:48AM -31.8210 151.5120 217° Southwest 396 456 36,000  Level FlightAware
12:48AM -31.8770 151.4625 217° Southwest 395 455 36,000  Level Aus ATC (RADAR)
12:49AM -31.8890 151.4520 217° Southwest 393 452 36,000  Level FlightAware
12:49AM -31.9341 151.4121 217° Southwest 392 451 36,000  Level FlightAware ADS-B
12:50AM -32.0039 151.3508 217° Southwest 390 449 36,000 -120 Level FlightAware ADS-B
12:51AM -32.0634 151.2991 217° Southwest 382 440 35,900  Descending Aus ATC (RADAR)
12:51AM -32.0660 151.2960 217° Southwest 387 445 36,000  Climbing FlightAware
12:51AM -32.0850 151.2801 217° Southwest 382 440 35,900  Descending Aus ATC (RADAR)
12:51AM -32.0039 151.3508 37° Northeast 391 450 36,000 60 Climbing FlightAware ADS-B
12:52AM -32.1985 151.1791 217° Southwest 392 451 36,000 -120 Level FlightAware ADS-B
12:53AM -32.2519 151.1342 217° Southwest 385 443 35,900  Descending Aus ATC (RADAR)
12:53AM -32.2730 151.1130 217° Southwest 391 450 36,000 60 Climbing FlightAware
12:54AM -32.3360 151.0824 202° Southwest 381 438 36,000 -840 Level FlightAware ADS-B
12:55AM -32.4341 151.0570 192° South 379 436 34,700 -1,860 Descending FlightAware ADS-B
12:55AM -32.4876 151.0429 193° South 383 441 33,300 -2,880 Descending FlightAware ADS-B
12:56AM -32.5262 151.0327 193° South 387 445 31,800 -3,000 Descending FlightAware ADS-B
12:56AM -32.5954 151.0145 192° South 389 448 30,300 -2,640 Descending FlightAware ADS-B (YXSG)
12:57AM -32.6537 150.9990 193° South 384 442 28,900 -2,280 Descending FlightAware ADS-B
12:57AM -32.7017 150.9865 192° South 382 440 28,000 -2,280 Descending FlightAware ADS-B
12:58AM -32.7547 150.9722 192° South 374 430 26,800 -2,820 Descending Aus ATC (RADAR)
12:58AM -32.7547 150.9726 192° South 375 432 26,500 -2,280 Descending FlightAware ADS-B (YXSG)
12:58AM -32.8126 150.9670 192° South 366 421 25,500 -2,160 Descending Aus ATC (RADAR)
12:58AM -32.8217 150.9697 192° South 369 425 25,100 -2,220 Descending FlightAware ADS-B (YXSG)
12:59AM -32.8782 150.9796 172° South 366 421 24,100 -2,040 Descending FlightAware ADS-B (YXSG)
12:59AM -32.9319 150.9892 172° South 354 407 22,900 -2,160 Descending Aus ATC (RADAR)
12:59AM -32.9360 150.9899 172° South 360 414 22,700 -2,160 Descending FlightAware ADS-B
01:00AM -32.9919 150.9997 172° South 358 412 21,600 -2,100 Descending FlightAware ADS-B (YXSG)
01:00AM -33.0058 151.0022 171° South 356 410 21,300 -2,100 Descending FlightAware ADS-B
01:01AM -33.0713 151.0143 171° South 352 405 19,900 -2,160 Descending FlightAware ADS-B (YXSG)
01:01AM -33.1276 151.0242 172° South 351 404 18,700 -2,160 Descending FlightAware ADS-B
01:02AM -33.1868 151.0347 172° South 348 400 17,300 -2,160 Descending FlightAware ADS-B
01:03AM -33.2383 151.0442 171° South 348 400 16,200 -2,160 Descending FlightAware ADS-B (YXSG)
01:03AM -33.2861 151.0531 171° South 344 396 15,100 -1,620 Descending FlightAware ADS-B (YSSY / SYD)
01:04AM -33.3348 151.0627 171° South 374 430 14,600 -900 Descending FlightAware ADS-B (YSSY / SYD)
01:04AM -33.3895 151.0732 171° South 393 452 14,200 -1,320 Descending FlightAware ADS-B (YSSY / SYD)
01:05AM -33.4437 151.0835 171° South 392 451 13,300 -2,280 Descending FlightAware ADS-B (YSSY / SYD)
01:05AM -33.5080 151.0959 171° South 384 442 11,700 -2,700 Descending FlightAware ADS-B
01:06AM -33.5608 151.1061 171° South 379 436 10,300 -2,700 Descending FlightAware ADS-B (YSSY / SYD)
01:06AM -33.5954 151.1127 171° South 375 432 9,400 -2,280 Descending FlightAware ADS-B (YSSY / SYD)
01:06AM -33.6308 151.1213 169° South 371 427 8,800 -1,380 Descending FlightAware ADS-B (YSSY / SYD)
01:07AM -33.6687 151.1389 159° South 373 429 8,400 -840 Descending FlightAware ADS-B (YSSY / SYD)
01:07AM -33.7002 151.1586 153° Southeast 372 428 8,200 -780 Descending FlightAware ADS-B (YSSY / SYD)
01:07AM -33.7307 151.1779 152° Southeast 372 428 7,900 -780 Descending FlightAware ADS-B (YSSY / SYD)
01:08AM -33.7618 151.1977 152° Southeast 372 428 7,700 -780 Descending FlightAware ADS-B (YSSY / SYD)
01:08AM -33.7907 151.2162 152° Southeast 369 425 7,400 -780 Descending FlightAware ADS-B (YSSY / SYD)
01:08AM -33.8192 151.2345 152° Southeast 366 421 7,200 -780 Descending FlightAware ADS-B (YSSY / SYD)
01:09AM -33.8537 151.2566 152° Southeast 366 421 6,900 -840 Descending FlightAware ADS-B
01:09AM -33.8782 151.2723 152° Southeast 355 409 6,700 -840 Descending FlightAware ADS-B (YSSY / SYD)
01:09AM -33.9053 151.2896 152° Southeast 338 389 6,400 -900 Descending FlightAware ADS-B (YSSY / SYD)
01:10AM -33.9333 151.3074 152° Southeast 323 372 6,100 -480 Descending FlightAware ADS-B (YSSY / SYD)
01:10AM -33.9587 151.3215 155° Southeast 299 344 6,100  Level FlightAware ADS-B (YSSY / SYD)
01:10AM -33.9754 151.3278 163° South 286 329 6,100 -180 Level FlightAware ADS-B
01:11AM -33.9937 151.3328 167° South 283 326 6,000 -900 Descending FlightAware ADS-B
01:11AM -34.0311 151.3427 168° South 282 325 5,500 -1,500 Descending FlightAware ADS-B
01:11AM -34.0566 151.3493 168° South 282 325 5,000 -1,560 Descending FlightAware ADS-B (YSSY / SYD)
01:12AM -34.0739 151.3539 168° South 281 323 4,600 -1,440 Descending FlightAware ADS-B (YSSY / SYD)
01:12AM -34.0821 151.3558 169° South 279 321 4,500 -1,200 Descending FlightAware ADS-B (YXSG)
01:12AM -34.0947 151.3560 179° South 277 319 4,300 -1,800 Descending FlightAware ADS-B (YSSY / SYD)
01:12AM -34.0996 151.3547 192° South 274 315 4,000 -1,920 Descending FlightAware ADS-B (YSSY / SYD)
01:12AM -34.1140 151.3456 207° Southwest 269 310 3,800 -1,440 Descending FlightAware ADS-B (YSSY / SYD)
01:12AM -34.1169 151.3425 223° Southwest 267 307 3,700 -900 Descending FlightAware ADS-B
01:12AM -34.1243 151.3293 236° Southwest 263 303 3,600 -900 Descending FlightAware ADS-B (YSSY / SYD)
01:12AM -34.1267 151.3220 248° West 260 299 3,500 -900 Descending FlightAware ADS-B (YXSG)
01:13AM -34.1318 151.3029 252° West 252 290 3,300 -720 Descending FlightAware ADS-B
01:13AM -34.1323 151.2887 267° West 247 284 3,200 -660 Descending FlightAware ADS-B
01:13AM -34.1219 151.2657 299° West 236 272 3,000 -660 Descending FlightAware ADS-B
01:13AM -34.1136 151.2574 320° Northwest 232 267 2,900 -600 Descending FlightAware ADS-B (YXSG)
01:14AM -34.1010 151.2449 321° Northwest 208 239 2,700 -960 Descending FlightAware ADS-B (YSSY / SYD)
01:14AM -34.0807 151.2247 321° Northwest 204 235 2,200 -1,320 Descending FlightAware ADS-B
01:14AM -34.0741 151.2208 334° Northwest 199 229 2,000 -1,140 Descending FlightAware ADS-B
01:14AM -34.0682 151.2187 343° North 193 222 1,900 -840 Descending FlightAware ADS-B (YSSY / SYD)
01:15AM -34.0491 151.2141 349° North 172 198 1,600 -840 Descending FlightAware ADS-B
01:15AM -34.0351 151.2107 348° North 155 178 1,300 -840 Descending FlightAware ADS-B
01:15AM -34.0165 151.2057 348° North 136 157 1,000 -720 Descending FlightAware ADS-B (YSSY / SYD)
01:16AM -34.0080 151.2036 348° North 132 152 800 -720 Descending FlightAware ADS-B
01:16AM -33.9951 151.2000 347° North 126 145 600 -660 Descending FlightAware ADS-B
01:17AM -33.9670 151.1930 347° North 131 151 100 -660 Descending FlightAware
01:17AM -33.9636 151.1920 347° North 128 147 -1,200 Descending Aus ATC (RADAR)